Terminal Aerodrome Forecast
Issued by NWS Wilmington, NC

Home | Current Version | Previous Version | Text Only | Print | Product List | Glossary On
Versions: 1 2 3 4 5 6 7 8 9 10 11 12 13 14 15 16 17 18 19 20 21 22 23
965
FTUS42 KILM 231822 AAA
TAFMYR
TAF AMD
KMYR 231822Z 2318/2418 21009KT P6SM -SHRA BKN035
      TEMPO 2318/2320 4SM TSRA BKN025CB
     FM232000 21009KT P6SM -SHRA BKN035
      TEMPO 2320/2322 3SM TSRA BKN025CB
     FM240000 23005KT P6SM BKN035
     FM241000 VRB03KT P6SM SCT010 BKN035
     FM241600 07005KT 5SM SHRA VCTS BKN030CB=

USA.gov is the U.S. government's official web portal to all federal, state and local government web resources and services.